Time;durP1;ratioP1;P1;durP2;ratioP2;P2;SDS_P1;SDS_P2;PMS_P1;PMS_P2;Temp;Humidity;BMP_temperature;BMP_pressure;BME280_temperature;BME280_humidity;BME280_pressure;Samples;Min_cycle;Max_cycle;Signal;HPM_P1;HPM_P2
2022/05/31 00:01:21;;;;;;;1.80;0.47;;;11.20;96.30;;;;;;5096737;28;20451;-83
2022/05/31 00:03:48;;;;;;;0.30;0.30;;;11.20;95.70;;;;;;5096341;28;20821;-83
2022/05/31 00:06:15;;;;;;;0.57;0.57;;;11.20;95.70;;;;;;5096692;28;20451;-83
2022/05/31 00:08:41;;;;;;;0.40;0.33;;;11.20;95.60;;;;;;5096344;28;20939;-83
2022/05/31 00:11:10;;;;;;;0.40;0.37;;;11.20;96.50;;;;;;5096195;28;20511;-83
2022/05/31 00:13:36;;;;;;;0.50;0.40;;;11.10;96.50;;;;;;5096469;28;20460;-83
2022/05/31 00:16:04;;;;;;;0.30;0.30;;;11.10;96.70;;;;;;5096242;28;20436;-82
2022/05/31 00:18:30;;;;;;;0.40;0.40;;;11.00;97.30;;;;;;5096146;28;20931;-81
2022/05/31 00:20:57;;;;;;;0.60;0.40;;;11.00;97.60;;;;;;5096426;28;20451;-81
2022/05/31 00:23:24;;;;;;;0.60;0.60;;;10.90;97.70;;;;;;5095950;28;20475;-81
2022/05/31 00:25:51;;;;;;;0.30;0.30;;;10.90;97.90;;;;;;5096400;28;20459;-82
2022/05/31 00:28:19;;;;;;;0.40;0.40;;;10.80;98.60;;;;;;5096295;28;20451;-81
2022/05/31 00:30:46;;;;;;;0.40;0.40;;;10.70;98.10;;;;;;5096102;28;20476;-81
2022/05/31 00:33:13;;;;;;;0.53;0.50;;;10.70;98.70;;;;;;5095854;28;20452;-82
2022/05/31 00:35:44;;;;;;;0.47;0.30;;;10.60;99.40;;;;;;5096711;28;20494;-81
2022/05/31 00:38:11;;;;;;;0.63;0.43;;;10.60;99.40;;;;;;5096170;28;20446;-85
2022/05/31 00:40:39;;;;;;;1.00;0.40;;;10.50;99.40;;;;;;5095992;28;20476;-85
2022/05/31 00:43:08;;;;;;;0.77;0.40;;;10.50;99.40;;;;;;5096125;28;20464;-85
2022/05/31 00:45:40;;;;;;;0.50;0.50;;;10.40;99.90;;;;;;5096100;28;20542;-85
2022/05/31 00:48:11;;;;;;;0.40;0.40;;;10.40;99.90;;;;;;5096139;28;20428;-85
2022/05/31 00:50:44;;;;;;;0.43;0.37;;;10.30;99.90;;;;;;5095946;28;20471;-85
2022/05/31 00:53:15;;;;;;;0.30;0.30;;;10.20;99.90;;;;;;5095787;28;20449;-85
2022/05/31 00:55:47;;;;;;;0.47;0.30;;;10.20;99.90;;;;;;5097058;28;20432;-85
2022/05/31 00:58:18;;;;;;;0.40;0.30;;;10.20;99.90;;;;;;5094731;28;20507;-86
2022/05/31 01:00:46;;;;;;;0.33;0.33;;;10.10;99.90;;;;;;5095822;28;20436;-86
2022/05/31 01:03:17;;;;;;;0.43;0.43;;;10.10;99.90;;;;;;5095838;28;20471;-86
2022/05/31 01:05:44;;;;;;;0.40;0.30;;;10.10;99.90;;;;;;5095784;28;20420;-86
2022/05/31 01:08:11;;;;;;;0.40;0.30;;;10.00;99.90;;;;;;5095851;28;20448;-86
2022/05/31 01:10:38;;;;;;;0.50;0.40;;;10.00;99.90;;;;;;5096531;28;20485;-86
2022/05/31 01:13:05;;;;;;;0.40;0.40;;;10.00;99.90;;;;;;5095842;28;20997;-86
2022/05/31 01:15:32;;;;;;;0.40;0.40;;;10.00;99.90;;;;;;5095458;28;20954;-86
2022/05/31 01:18:00;;;;;;;0.50;0.50;;;10.00;99.90;;;;;;5095735;28;20455;-86
2022/05/31 01:20:28;;;;;;;0.47;0.37;;;10.00;99.90;;;;;;5095601;28;20444;-86
2022/05/31 01:22:57;;;;;;;0.30;0.30;;;10.00;99.90;;;;;;5095232;28;20460;-86
2022/05/31 01:25:47;;;;;;;2.20;0.60;;;10.00;99.90;;;;;;5095085;28;20463;-86
2022/05/31 01:28:24;;;;;;;0.60;0.50;;;10.00;99.90;;;;;;5095502;28;20786;-86
2022/05/31 01:30:56;;;;;;;0.60;0.30;;;9.90;99.90;;;;;;5095030;28;20464;-86
2022/05/31 01:33:28;;;;;;;1.23;0.60;;;10.00;99.90;;;;;;5095332;28;20468;-86
2022/05/31 01:36:00;;;;;;;0.37;0.33;;;9.90;99.90;;;;;;5095399;28;20437;-86
2022/05/31 01:38:33;;;;;;;0.40;0.40;;;9.90;99.90;;;;;;5095309;28;20884;-87
2022/05/31 01:41:09;;;;;;;0.40;0.30;;;9.90;99.90;;;;;;5094994;28;20460;-85
2022/05/31 01:43:36;;;;;;;0.40;0.40;;;10.00;99.90;;;;;;5095097;28;20479;-86
2022/05/31 01:46:08;;;;;;;1.00;0.40;;;10.00;99.90;;;;;;5095048;28;20837;-81
2022/05/31 01:48:37;;;;;;;2.03;0.40;;;10.00;99.90;;;;;;5094483;28;20432;-82
2022/05/31 01:51:05;;;;;;;0.30;0.30;;;9.90;99.90;;;;;;5094277;28;21014;-83
2022/05/31 01:53:34;;;;;;;0.30;0.30;;;9.90;99.90;;;;;;5094440;28;20468;-83
2022/05/31 01:56:01;;;;;;;0.63;0.40;;;9.90;99.90;;;;;;5094538;28;20448;-83
2022/05/31 01:58:32;;;;;;;0.40;0.40;;;9.90;99.90;;;;;;5094537;28;20444;-82
2022/05/31 02:00:59;;;;;;;0.70;0.70;;;9.80;99.90;;;;;;5094247;28;20429;-83
2022/05/31 02:03:26;;;;;;;0.40;0.40;;;9.80;99.90;;;;;;5094389;28;20464;-83
2022/05/31 02:05:54;;;;;;;3.13;2.10;;;9.80;99.90;;;;;;5094100;28;20452;-83
2022/05/31 02:08:25;;;;;;;1.03;0.40;;;9.80;99.90;;;;;;5094260;28;20958;-86
2022/05/31 02:10:54;;;;;;;0.40;0.30;;;9.70;99.90;;;;;;5094386;28;20468;-86
2022/05/31 02:13:21;;;;;;;0.40;0.40;;;9.80;99.90;;;;;;5093982;28;20468;-83
2022/05/31 02:15:48;;;;;;;0.67;0.50;;;9.70;99.90;;;;;;5094146;28;20450;-83
2022/05/31 02:18:15;;;;;;;0.30;0.30;;;9.80;99.90;;;;;;5094192;28;20444;-82
2022/05/31 02:20:42;;;;;;;0.30;0.27;;;9.80;99.90;;;;;;5094115;28;20444;-82
2022/05/31 02:23:09;;;;;;;0.60;0.40;;;9.70;99.90;;;;;;5093741;28;20978;-83
2022/05/31 02:25:37;;;;;;;0.30;0.30;;;9.70;99.90;;;;;;5094012;28;20452;-83
2022/05/31 02:28:05;;;;;;;0.50;0.50;;;9.70;99.90;;;;;;5094017;28;20444;-83
2022/05/31 02:30:31;;;;;;;0.83;0.40;;;9.70;99.90;;;;;;5093682;28;21029;-82
2022/05/31 02:32:59;;;;;;;0.70;0.70;;;9.70;99.90;;;;;;5093820;28;20464;-83
2022/05/31 02:35:26;;;;;;;1.03;0.30;;;9.70;99.90;;;;;;5093825;28;20448;-83
2022/05/31 02:37:53;;;;;;;0.40;0.30;;;9.70;99.90;;;;;;5093850;28;20451;-83
2022/05/31 02:40:19;;;;;;;0.30;0.30;;;9.70;99.90;;;;;;5093294;28;21000;-83
2022/05/31 02:42:48;;;;;;;0.67;0.67;;;9.60;99.90;;;;;;5093768;28;20475;-83
2022/05/31 02:45:14;;;;;;;0.30;0.30;;;9.60;99.90;;;;;;5093790;28;20451;-82
2022/05/31 02:47:41;;;;;;;0.60;0.40;;;9.50;99.90;;;;;;5093673;28;20447;-83
2022/05/31 02:50:09;;;;;;;0.30;0.30;;;9.50;99.90;;;;;;5093322;28;21013;-83
2022/05/31 02:52:36;;;;;;;0.97;0.50;;;9.40;99.90;;;;;;5093621;28;20540;-83
2022/05/31 02:55:03;;;;;;;0.30;0.30;;;9.40;99.90;;;;;;5093621;28;20444;-83
2022/05/31 02:57:30;;;;;;;0.80;0.37;;;9.40;99.90;;;;;;5093611;28;20811;-82
2022/05/31 02:59:58;;;;;;;0.30;0.30;;;9.30;99.90;;;;;;5093279;28;20888;-82
2022/05/31 03:02:25;;;;;;;0.30;0.30;;;9.30;99.90;;;;;;5093057;28;21014;-82
2022/05/31 03:04:52;;;;;;;0.30;0.30;;;9.20;99.90;;;;;;5093526;28;20444;-83
2022/05/31 03:07:18;;;;;;;0.37;0.37;;;9.20;99.90;;;;;;5093497;28;20834;-83
2022/05/31 03:09:45;;;;;;;0.30;0.20;;;9.20;99.90;;;;;;5093451;28;20467;-83
2022/05/31 03:12:16;;;;;;;0.40;0.40;;;9.20;99.90;;;;;;5093389;28;20488;-85
2022/05/31 03:14:46;;;;;;;0.60;0.60;;;9.10;99.90;;;;;;5093703;28;20819;-85
2022/05/31 03:17:18;;;;;;;0.40;0.30;;;9.10;99.90;;;;;;5093638;28;20433;-85
2022/05/31 03:19:49;;;;;;;0.40;0.40;;;9.20;99.90;;;;;;5093376;28;20424;-83
2022/05/31 03:22:21;;;;;;;0.30;0.27;;;9.10;99.90;;;;;;5096135;28;20464;-83
2022/05/31 03:24:53;;;;;;;1.17;0.57;;;9.10;99.90;;;;;;5097208;28;20903;-81
2022/05/31 03:27:20;;;;;;;0.43;0.33;;;9.10;99.90;;;;;;5097418;28;20432;-86
2022/05/31 03:29:48;;;;;;;0.40;0.40;;;9.10;99.90;;;;;;5097657;28;20448;-86
2022/05/31 03:32:17;;;;;;;0.40;0.30;;;9.00;99.90;;;;;;5097209;28;20483;-81
2022/05/31 03:34:44;;;;;;;0.40;0.30;;;9.00;99.90;;;;;;5097035;28;20525;-81
2022/05/31 03:37:11;;;;;;;0.40;0.40;;;9.10;99.90;;;;;;5096985;28;20433;-81
2022/05/31 03:39:38;;;;;;;0.60;0.40;;;9.10;99.90;;;;;;5097002;28;20443;-82
2022/05/31 03:42:07;;;;;;;1.43;0.40;;;9.10;99.90;;;;;;5096755;28;20482;-82
2022/05/31 03:44:34;;;;;;;1.07;0.50;;;9.10;99.90;;;;;;5096889;28;20448;-83
2022/05/31 03:47:02;;;;;;;0.37;0.37;;;9.10;99.90;;;;;;5097051;28;20463;-83
2022/05/31 03:49:30;;;;;;;0.37;0.33;;;9.20;99.90;;;;;;5097068;28;20450;-83
2022/05/31 03:51:57;;;;;;;0.30;0.30;;;9.20;99.90;;;;;;5096552;28;21025;-83
2022/05/31 03:54:24;;;;;;;0.50;0.50;;;9.30;99.90;;;;;;5096897;28;20452;-83
2022/05/31 03:56:51;;;;;;;0.40;0.30;;;9.20;99.90;;;;;;5096834;28;20443;-83
2022/05/31 03:59:18;;;;;;;0.93;0.50;;;9.20;99.90;;;;;;5096565;28;20935;-83
2022/05/31 04:01:45;;;;;;;0.30;0.30;;;9.20;99.90;;;;;;5096749;28;20447;-83
2022/05/31 04:04:11;;;;;;;1.07;0.40;;;9.20;99.90;;;;;;5096442;28;20455;-82
2022/05/31 04:06:39;;;;;;;1.60;1.17;;;9.20;99.90;;;;;;5096708;28;20448;-83
2022/05/31 04:09:06;;;;;;;0.60;0.30;;;9.20;99.90;;;;;;5097226;28;20463;-83
2022/05/31 04:11:33;;;;;;;0.40;0.30;;;9.20;99.90;;;;;;5096545;28;20484;-83
2022/05/31 04:14:01;;;;;;;0.40;0.33;;;9.30;99.90;;;;;;5096789;28;20474;-85
2022/05/31 04:16:28;;;;;;;1.07;0.50;;;9.30;99.90;;;;;;5096745;28;20443;-85
2022/05/31 04:18:54;;;;;;;0.40;0.30;;;9.30;99.90;;;;;;5096869;28;20459;-85
2022/05/31 04:21:21;;;;;;;0.57;0.57;;;9.40;99.90;;;;;;5096482;28;20444;-84
2022/05/31 04:23:59;;;;;;;0.80;0.40;;;9.40;99.90;;;;;;5096389;28;20517;-84
2022/05/31 04:26:27;;;;;;;0.77;0.67;;;9.50;99.90;;;;;;5096422;28;20855;-81
2022/05/31 04:28:55;;;;;;;0.30;0.30;;;9.50;99.90;;;;;;5096319;28;20444;-81
2022/05/31 04:31:22;;;;;;;1.17;0.37;;;9.60;99.90;;;;;;5095850;28;20989;-81
2022/05/31 04:33:49;;;;;;;0.97;0.37;;;9.70;99.90;;;;;;5095989;28;20459;-81
2022/05/31 04:36:18;;;;;;;3.73;0.60;;;9.70;99.90;;;;;;5096163;28;20447;-81
2022/05/31 04:38:45;;;;;;;0.30;0.30;;;9.80;99.90;;;;;;5096139;28;20459;-83
2022/05/31 04:41:24;;;;;;;0.60;0.50;;;9.80;99.90;;;;;;5095725;28;20503;-83
2022/05/31 04:43:53;;;;;;;0.70;0.40;;;9.90;99.90;;;;;;5096002;28;20460;-83
2022/05/31 04:46:21;;;;;;;0.30;0.30;;;9.90;99.90;;;;;;5096025;28;20447;-83
2022/05/31 04:48:48;;;;;;;0.40;0.40;;;10.00;99.90;;;;;;5095595;28;20962;-83
2022/05/31 04:51:16;;;;;;;0.30;0.30;;;10.10;99.90;;;;;;5095776;28;20480;-83
2022/05/31 04:53:43;;;;;;;0.50;0.40;;;10.20;99.90;;;;;;5095727;28;20468;-83
2022/05/31 04:56:14;;;;;;;0.50;0.50;;;10.20;99.90;;;;;;5095518;28;20444;-83
2022/05/31 04:58:42;;;;;;;0.70;0.50;;;10.30;99.90;;;;;;5095819;28;20440;-83
2022/05/31 05:01:08;;;;;;;0.80;0.70;;;10.40;99.90;;;;;;5095728;28;20440;-83
2022/05/31 05:03:36;;;;;;;0.63;0.50;;;10.40;99.90;;;;;;5095535;28;20460;-83
2022/05/31 05:06:04;;;;;;;0.50;0.40;;;10.40;99.90;;;;;;5095577;28;20458;-83
2022/05/31 05:08:32;;;;;;;0.70;0.43;;;10.40;99.90;;;;;;5095500;28;20448;-83
2022/05/31 05:11:00;;;;;;;0.63;0.50;;;10.40;99.90;;;;;;5095419;28;20484;-83
2022/05/31 05:13:27;;;;;;;1.00;0.50;;;10.40;99.90;;;;;;5095098;28;20456;-83
2022/05/31 05:15:55;;;;;;;0.67;0.67;;;10.50;99.90;;;;;;5095414;28;20444;-82
2022/05/31 05:18:22;;;;;;;0.73;0.40;;;10.60;99.90;;;;;;5095379;28;20497;-82
2022/05/31 05:20:49;;;;;;;0.40;0.40;;;10.60;99.90;;;;;;5095063;28;20428;-84
2022/05/31 05:23:16;;;;;;;0.90;0.60;;;10.70;99.90;;;;;;5095073;28;20475;-83
2022/05/31 05:25:48;;;;;;;0.93;0.50;;;10.90;99.90;;;;;;5095080;28;20931;-83
2022/05/31 05:31:00;;;;;;;0.50;0.50;;;11.10;99.90;;;;;;5094952;28;20513;-83
2022/05/31 05:33:28;;;;;;;0.63;0.63;;;11.20;99.90;;;;;;5094929;28;20834;-83
2022/05/31 05:35:55;;;;;;;0.60;0.60;;;11.40;99.90;;;;;;5095146;28;20444;-83
2022/05/31 05:38:21;;;;;;;0.50;0.50;;;11.60;99.90;;;;;;5094801;28;20428;-80
2022/05/31 05:40:48;;;;;;;1.07;0.40;;;11.80;99.90;;;;;;5094639;28;20482;-81
2022/05/31 05:43:16;;;;;;;0.97;0.57;;;12.00;99.90;;;;;;5094221;28;20468;-81
2022/05/31 05:45:42;;;;;;;0.40;0.40;;;12.10;99.90;;;;;;5094395;28;20463;-81
2022/05/31 05:48:10;;;;;;;0.40;0.40;;;12.20;99.90;;;;;;5094795;28;20798;-81
2022/05/31 05:50:38;;;;;;;0.50;0.50;;;12.20;99.90;;;;;;5094683;28;20451;-80
2022/05/31 05:53:08;;;;;;;0.47;0.47;;;12.40;99.90;;;;;;5094236;28;20494;-81
2022/05/31 05:55:36;;;;;;;1.33;0.80;;;12.50;99.90;;;;;;5094647;28;20810;-80
2022/05/31 05:58:06;;;;;;;0.50;0.40;;;12.70;99.90;;;;;;5094587;28;20446;-81
2022/05/31 06:00:33;;;;;;;0.57;0.57;;;12.90;99.90;;;;;;5094246;28;20939;-82
2022/05/31 06:03:06;;;;;;;0.50;0.43;;;13.20;99.90;;;;;;5094450;28;20809;-84
2022/05/31 06:05:35;;;;;;;0.97;0.50;;;13.40;99.90;;;;;;5094438;28;20432;-82
2022/05/31 06:08:06;;;;;;;0.60;0.40;;;13.60;99.90;;;;;;5094361;28;20443;-82
2022/05/31 06:10:38;;;;;;;0.87;0.60;;;13.80;99.90;;;;;;5094402;28;20440;-82
2022/05/31 06:13:09;;;;;;;0.40;0.40;;;13.90;99.90;;;;;;5094238;28;20499;-82
2022/05/31 06:15:41;;;;;;;1.00;0.57;;;14.20;99.90;;;;;;5094364;28;20436;-85
2022/05/31 06:18:13;;;;;;;0.40;0.37;;;14.20;99.90;;;;;;5094349;28;20432;-86
2022/05/31 06:20:45;;;;;;;0.50;0.50;;;14.50;99.90;;;;;;5094649;28;20440;-87
2022/05/31 06:23:11;;;;;;;0.40;0.40;;;14.60;99.90;;;;;;5094527;28;20460;-87
2022/05/31 06:25:38;;;;;;;0.53;0.40;;;14.80;99.90;;;;;;5094621;28;20432;-87
2022/05/31 06:28:06;;;;;;;0.47;0.47;;;15.00;99.90;;;;;;5094435;28;20502;-86
2022/05/31 06:30:33;;;;;;;0.60;0.60;;;15.00;99.90;;;;;;5094116;28;20452;-86
2022/05/31 06:33:00;;;;;;;1.57;0.67;;;15.20;99.90;;;;;;5094215;28;20491;-86
2022/05/31 06:35:27;;;;;;;0.40;0.40;;;15.30;99.90;;;;;;5094395;28;20440;-87
2022/05/31 06:37:55;;;;;;;0.50;0.50;;;15.40;99.90;;;;;;5094382;28;20452;-86
2022/05/31 06:40:22;;;;;;;1.90;0.50;;;15.50;99.90;;;;;;5094020;28;20911;-86
2022/05/31 06:42:49;;;;;;;0.43;0.43;;;15.40;99.90;;;;;;5094180;28;20460;-86
2022/05/31 06:45:16;;;;;;;1.03;0.50;;;15.40;99.90;;;;;;5093822;28;20451;-86
2022/05/31 06:47:42;;;;;;;0.40;0.40;;;15.40;99.90;;;;;;5094074;28;20444;-86
2022/05/31 06:50:12;;;;;;;0.50;0.50;;;15.60;99.90;;;;;;5093753;28;20448;-85
2022/05/31 06:58:08;;;;;;;0.40;0.40;;;16.10;99.90;;;;;;5093824;28;20408;-86
2022/05/31 07:00:36;;;;;;;1.73;0.60;;;16.40;99.90;;;;;;5093738;28;20459;-85
2022/05/31 07:03:02;;;;;;;0.40;0.40;;;16.70;99.90;;;;;;5093574;28;20468;-85
2022/05/31 07:05:30;;;;;;;0.40;0.40;;;17.00;99.90;;;;;;5093616;28;20444;-85
2022/05/31 07:07:57;;;;;;;0.67;0.40;;;17.30;99.90;;;;;;5093537;28;20451;-85
2022/05/31 07:10:25;;;;;;;0.50;0.50;;;17.50;99.90;;;;;;5093771;28;20451;-88
2022/05/31 07:12:52;;;;;;;1.23;0.50;;;17.70;99.10;;;;;;5093807;28;20492;-87
2022/05/31 07:15:19;;;;;;;0.80;0.60;;;18.00;99.30;;;;;;5093934;28;20482;-88
2022/05/31 07:17:46;;;;;;;0.40;0.40;;;18.10;98.40;;;;;;5093001;28;20447;-82
2022/05/31 07:20:14;;;;;;;0.60;0.60;;;18.00;97.30;;;;;;5093630;28;20432;-82
2022/05/31 07:22:41;;;;;;;0.50;0.43;;;18.20;97.80;;;;;;5092998;28;20993;-82
2022/05/31 07:25:09;;;;;;;0.70;0.50;;;18.40;97.40;;;;;;5093323;28;20475;-82
2022/05/31 07:27:38;;;;;;;6.10;0.80;;;18.50;97.20;;;;;;5093019;28;20819;-82
2022/05/31 07:30:06;;;;;;;0.60;0.60;;;18.70;97.50;;;;;;5093322;28;20455;-82
2022/05/31 07:32:33;;;;;;;1.03;0.70;;;18.90;97.30;;;;;;5092838;28;21072;-82
2022/05/31 07:34:59;;;;;;;1.33;0.50;;;19.20;97.10;;;;;;5093235;28;20447;-82
2022/05/31 07:37:26;;;;;;;0.70;0.50;;;19.40;96.90;;;;;;5092891;28;20454;-82
2022/05/31 07:39:53;;;;;;;0.40;0.40;;;19.60;96.10;;;;;;5093343;28;20456;-82
2022/05/31 07:42:20;;;;;;;1.30;0.60;;;20.00;95.50;;;;;;5092962;28;20490;-82
2022/05/31 07:44:48;;;;;;;0.90;0.70;;;20.00;94.70;;;;;;5093168;28;20530;-82
2022/05/31 07:47:15;;;;;;;0.60;0.60;;;20.00;94.80;;;;;;5092819;28;20966;-82
2022/05/31 07:49:41;;;;;;;0.50;0.40;;;20.00;94.00;;;;;;5093092;28;20447;-82
2022/05/31 07:52:09;;;;;;;0.50;0.50;;;20.20;94.30;;;;;;5092972;28;20486;-82
2022/05/31 07:54:36;;;;;;;1.00;0.53;;;20.40;93.50;;;;;;5093122;28;20428;-82
2022/05/31 07:57:05;;;;;;;1.13;0.40;;;20.60;92.60;;;;;;5092622;28;20205;-82
2022/05/31 07:59:33;;;;;;;0.50;0.50;;;20.50;92.00;;;;;;5093027;28;20479;-82
2022/05/31 08:02:01;;;;;;;0.60;0.60;;;20.60;90.70;;;;;;5092975;28;20197;-82
2022/05/31 08:04:28;;;;;;;1.50;0.57;;;20.70;88.70;;;;;;5092709;28;20672;-82
2022/05/31 08:06:59;;;;;;;0.50;0.50;;;20.70;90.00;;;;;;5093334;28;20551;-82
2022/05/31 08:09:27;;;;;;;0.70;0.70;;;21.10;90.60;;;;;;5096377;28;20188;-82
2022/05/31 08:11:53;;;;;;;0.70;0.70;;;21.70;87.30;;;;;;5096251;28;20650;-82
2022/05/31 08:14:20;;;;;;;0.60;0.60;;;22.10;84.60;;;;;;5096370;28;20198;-83
2022/05/31 08:16:47;;;;;;;1.70;0.73;;;22.40;85.70;;;;;;5096509;28;20186;-83
2022/05/31 08:19:15;;;;;;;0.70;0.50;;;22.40;81.50;;;;;;5096532;28;20208;-83
2022/05/31 08:21:42;;;;;;;0.60;0.60;;;22.30;83.90;;;;;;5096416;28;20193;-83
2022/05/31 08:24:09;;;;;;;0.60;0.60;;;22.70;82.70;;;;;;5096431;28;20210;-83
2022/05/31 08:26:37;;;;;;;0.77;0.70;;;22.80;80.00;;;;;;5096404;28;20197;-82
2022/05/31 08:29:04;;;;;;;0.63;0.63;;;23.00;80.40;;;;;;5096380;28;20209;-83
2022/05/31 08:31:36;;;;;;;1.42;0.70;;;23.20;77.60;;;;;;5096298;28;20209;-83
2022/05/31 08:34:05;;;;;;;0.65;0.65;;;23.40;79.40;;;;;;5096246;28;20274;-84
2022/05/31 08:36:33;;;;;;;0.60;0.60;;;23.50;77.00;;;;;;5096017;28;20190;-83
2022/05/31 08:39:00;;;;;;;0.80;0.80;;;23.80;76.00;;;;;;5096105;28;20220;-83
2022/05/31 08:41:30;;;;;;;1.20;0.93;;;24.10;74.20;;;;;;5095875;28;20259;-83
2022/05/31 08:44:12;;;;;;;0.60;0.60;;;24.50;72.80;;;;;;5095707;28;20260;-83
2022/05/31 08:46:53;;;;;;;4.15;0.50;;;24.70;72.50;;;;;;5095944;28;20190;-83
2022/05/31 08:52:49;;;;;;;1.15;0.63;;;24.50;72.80;;;;;;5095628;28;20232;-82
2022/05/31 08:58:09;;;;;;;0.57;0.57;;;23.40;71.80;;;;;;5095584;28;20176;-83
2022/05/31 09:00:40;;;;;;;0.55;0.55;;;23.50;74.60;;;;;;5095488;28;20664;-83
2022/05/31 09:03:11;;;;;;;0.80;0.80;;;23.80;73.60;;;;;;5095679;28;20221;-83
2022/05/31 09:05:44;;;;;;;0.68;0.68;;;24.00;72.20;;;;;;5095696;28;20197;-83
2022/05/31 09:08:17;;;;;;;0.50;0.50;;;23.60;68.40;;;;;;5095305;28;20783;-83
2022/05/31 09:10:50;;;;;;;0.57;0.57;;;23.20;71.30;;;;;;5095833;28;20208;-82
2022/05/31 09:13:23;;;;;;;1.25;0.70;;;22.50;70.60;;;;;;5095402;28;20217;-82
2022/05/31 09:15:55;;;;;;;0.50;0.50;;;22.00;72.40;;;;;;5095554;28;20594;-83
2022/05/31 09:18:31;;;;;;;0.65;0.60;;;21.80;73.40;;;;;;5095238;28;20196;-87
2022/05/31 09:21:02;;;;;;;0.60;0.60;;;21.70;73.70;;;;;;5096135;28;20585;-87
2022/05/31 09:23:33;;;;;;;0.70;0.70;;;21.60;73.40;;;;;;5095559;28;20225;-86
2022/05/31 09:26:12;;;;;;;0.50;0.50;;;21.50;75.50;;;;;;5095658;28;20194;-86
2022/05/31 09:28:48;;;;;;;0.50;0.50;;;21.40;76.00;;;;;;5095667;28;20193;-82
2022/05/31 09:31:31;;;;;;;0.83;0.70;;;21.40;77.00;;;;;;5094787;28;20182;-82
2022/05/31 09:34:08;;;;;;;0.70;0.70;;;21.40;77.00;;;;;;5094996;28;20490;-82
2022/05/31 09:36:43;;;;;;;0.50;0.50;;;21.40;77.90;;;;;;5094776;28;20907;-84
2022/05/31 09:39:26;;;;;;;1.13;0.70;;;21.30;78.00;;;;;;5094949;28;20450;-85
2022/05/31 09:41:59;;;;;;;0.70;0.70;;;21.30;79.50;;;;;;5094638;28;20478;-84
2022/05/31 09:44:32;;;;;;;0.57;0.57;;;21.40;78.70;;;;;;5094645;28;20481;-85
2022/05/31 09:47:05;;;;;;;0.73;0.73;;;21.60;78.50;;;;;;5094654;28;20436;-84
2022/05/31 09:49:36;;;;;;;1.27;0.60;;;22.00;77.20;;;;;;5094968;28;20428;-85
2022/05/31 09:52:08;;;;;;;0.60;0.60;;;22.30;77.20;;;;;;5094743;28;20471;-85
2022/05/31 09:58:01;;;;;;;0.80;0.70;;;22.60;74.20;;;;;;5094582;28;20208;-85
2022/05/31 10:00:27;;;;;;;0.87;0.80;;;22.70;69.50;;;;;;5094604;28;20190;-85
2022/05/31 10:03:03;;;;;;;0.87;0.60;;;22.60;69.80;;;;;;5094428;28;20225;-85
2022/05/31 10:05:30;;;;;;;0.50;0.50;;;22.60;70.20;;;;;;5094326;28;20192;-82
2022/05/31 10:07:57;;;;;;;0.63;0.63;;;22.60;71.20;;;;;;5094447;28;20209;-82
2022/05/31 10:10:32;;;;;;;0.50;0.50;;;22.30;69.70;;;;;;5094540;28;20197;-85
2022/05/31 10:13:00;;;;;;;0.90;0.77;;;22.20;70.80;;;;;;5094298;28;20235;-85
2022/05/31 10:15:48;;;;;;;0.60;0.60;;;22.00;71.20;;;;;;5094391;28;20208;-85
2022/05/31 10:18:26;;;;;;;0.60;0.60;;;21.80;70.60;;;;;;5094396;28;20796;-85
2022/05/31 10:20:56;;;;;;;3.10;1.00;;;21.80;71.20;;;;;;5094305;28;20428;-85
2022/05/31 10:23:25;;;;;;;1.23;0.60;;;21.80;68.70;;;;;;5094955;28;20459;-85
2022/05/31 10:25:55;;;;;;;0.70;0.50;;;22.10;71.30;;;;;;5094247;28;20451;-86
2022/05/31 10:28:29;;;;;;;0.90;0.53;;;22.40;73.70;;;;;;5094149;28;20205;-85
2022/05/31 10:31:03;;;;;;;0.60;0.53;;;22.80;78.00;;;;;;5093799;28;20629;-86
2022/05/31 10:33:31;;;;;;;0.63;0.60;;;23.00;76.50;;;;;;5094189;28;20278;-86
2022/05/31 10:36:07;;;;;;;0.60;0.60;;;23.20;77.10;;;;;;5093718;28;20668;-85
2022/05/31 10:38:35;;;;;;;0.73;0.60;;;23.20;77.70;;;;;;5094131;28;20181;-83
2022/05/31 10:41:07;;;;;;;0.63;0.63;;;23.20;75.50;;;;;;5093531;28;20237;-84
2022/05/31 10:43:37;;;;;;;0.80;0.80;;;23.30;75.50;;;;;;5093886;28;20239;-84
2022/05/31 10:46:10;;;;;;;0.70;0.50;;;23.50;74.10;;;;;;5094049;28;20193;-86
2022/05/31 10:48:46;;;;;;;0.70;0.70;;;23.50;73.00;;;;;;5093886;28;20189;-84
2022/05/31 10:51:21;;;;;;;0.80;0.75;;;23.50;72.60;;;;;;5093445;28;20632;-84
2022/05/31 10:53:59;;;;;;;0.60;0.60;;;23.60;72.50;;;;;;5093517;28;20230;-87
2022/05/31 10:56:36;;;;;;;1.23;1.10;;;23.50;72.90;;;;;;5093719;28;20196;-87
2022/05/31 10:59:06;;;;;;;0.50;0.50;;;23.50;73.00;;;;;;5093838;28;20189;-86
2022/05/31 11:01:49;;;;;;;0.50;0.50;;;23.90;71.70;;;;;;5093640;28;20197;-85
2022/05/31 11:04:45;;;;;;;0.73;0.73;;;24.20;69.60;;;;;;5093823;28;20186;-86
2022/05/31 11:07:27;;;;;;;0.50;0.50;;;24.70;67.30;;;;;;5073001;28;20695;-84
2022/05/31 11:13:11;;;;;;;0.80;0.80;;;24.80;65.50;;;;;;5093477;28;20231;-84
2022/05/31 11:15:45;;;;;;;0.55;0.55;;;24.70;64.60;;;;;;5093638;28;20185;-87
2022/05/31 11:18:33;;;;;;;0.60;0.60;;;24.40;64.70;;;;;;5093662;28;20275;-86
2022/05/31 11:21:11;;;;;;;0.80;0.80;;;23.90;64.30;;;;;;5093560;28;20190;-86
2022/05/31 11:23:55;;;;;;;0.90;0.63;;;23.60;67.40;;;;;;5093089;28;20224;-86
2022/05/31 11:26:37;;;;;;;0.82;0.65;;;23.30;69.20;;;;;;5094061;28;20648;-86
2022/05/31 11:29:20;;;;;;;0.70;0.60;;;23.30;68.50;;;;;;5093118;28;20645;-85
2022/05/31 11:31:56;;;;;;;1.30;1.00;;;23.10;67.80;;;;;;5093075;28;20641;-86
2022/05/31 11:34:39;;;;;;;0.73;0.73;;;23.10;69.20;;;;;;5093153;28;20245;-82
2022/05/31 11:37:18;;;;;;;0.60;0.60;;;23.20;66.60;;;;;;5093537;28;20553;-86
2022/05/31 11:39:57;;;;;;;0.97;0.70;;;23.20;67.00;;;;;;5093317;28;20189;-86
2022/05/31 11:42:45;;;;;;;0.90;0.77;;;23.30;64.90;;;;;;5094111;28;20237;-86
2022/05/31 11:45:22;;;;;;;0.60;0.60;;;23.20;69.10;;;;;;5097531;28;20237;-86
2022/05/31 11:48:05;;;;;;;1.08;0.70;;;23.10;67.00;;;;;;5096992;28;20185;-86
2022/05/31 11:50:39;;;;;;;0.93;0.43;;;23.10;68.70;;;;;;5097339;28;20189;-86
2022/05/31 11:53:25;;;;;;;0.70;0.70;;;23.20;68.50;;;;;;5096740;28;20224;-86
2022/05/31 11:55:57;;;;;;;1.23;0.63;;;23.10;69.00;;;;;;5097709;28;20181;-85
2022/05/31 11:58:33;;;;;;;0.60;0.60;;;23.00;69.90;;;;;;5097068;28;20653;-85
2022/05/31 12:01:11;;;;;;;0.70;0.60;;;22.90;70.10;;;;;;5097279;28;20295;-85
2022/05/31 12:03:49;;;;;;;0.60;0.60;;;22.90;68.10;;;;;;5096929;28;20223;-82
2022/05/31 12:06:24;;;;;;;0.60;0.60;;;22.70;68.20;;;;;;5096753;28;20185;-82
2022/05/31 12:08:56;;;;;;;0.60;0.60;;;22.60;70.10;;;;;;5096812;28;20431;-82
2022/05/31 12:11:27;;;;;;;0.60;0.60;;;22.50;67.50;;;;;;5096479;28;20196;-82
2022/05/31 12:13:55;;;;;;;0.80;0.80;;;22.40;68.20;;;;;;5096567;28;20221;-82
2022/05/31 12:16:24;;;;;;;0.70;0.60;;;22.40;68.00;;;;;;5096613;28;20448;-82
2022/05/31 12:19:02;;;;;;;1.03;0.57;;;22.30;68.90;;;;;;5096167;28;20862;-82
2022/05/31 12:21:35;;;;;;;0.60;0.50;;;22.30;66.20;;;;;;5096865;28;20200;-82
2022/05/31 12:24:09;;;;;;;1.07;0.60;;;22.30;67.20;;;;;;5096436;28;20218;-82
2022/05/31 12:26:41;;;;;;;0.60;0.60;;;22.20;67.00;;;;;;5096208;28;20938;-82
2022/05/31 12:29:13;;;;;;;0.80;0.80;;;22.20;68.90;;;;;;5096453;28;20193;-82
2022/05/31 12:31:42;;;;;;;0.80;0.80;;;22.10;68.90;;;;;;5096386;28;20427;-86
2022/05/31 12:34:44;;;;;;;1.73;0.70;;;22.10;67.40;;;;;;5096362;28;20479;-85
2022/05/31 12:37:12;;;;;;;0.50;0.50;;;22.10;69.20;;;;;;5096485;28;20192;-86
2022/05/31 12:39:41;;;;;;;0.50;0.50;;;22.00;69.60;;;;;;5096306;28;20455;-86
2022/05/31 12:42:36;;;;;;;0.70;0.70;;;22.10;68.80;;;;;;5095975;28;20569;-86
2022/05/31 12:45:37;;;;;;;0.67;0.67;;;22.30;67.60;;;;;;5088721;28;20539;-86
2022/05/31 12:48:20;;;;;;;0.43;0.43;;;22.40;65.60;;;;;;5082064;28;20447;-82
2022/05/31 12:51:20;;;;;;;0.83;0.53;;;22.50;67.40;;;;;;5095993;28;20428;-82
2022/05/31 12:54:15;;;;;;;0.50;0.50;;;22.50;67.30;;;;;;5095804;28;20485;-82
2022/05/31 12:57:03;;;;;;;0.50;0.50;;;22.30;64.20;;;;;;5095605;28;20761;-82
2022/05/31 12:59:47;;;;;;;0.97;0.70;;;22.30;63.00;;;;;;5095880;28;20469;-82
2022/05/31 13:02:35;;;;;;;1.00;0.80;;;22.20;62.50;;;;;;5095710;28;20471;-82
2022/05/31 13:05:08;;;;;;;0.87;0.60;;;22.00;64.00;;;;;;5095664;28;20470;-82
2022/05/31 13:07:45;;;;;;;1.40;0.60;;;22.00;63.10;;;;;;5095743;28;20530;-82
2022/05/31 13:10:33;;;;;;;0.60;0.60;;;22.00;63.10;;;;;;5095642;28;20435;-87
2022/05/31 13:21:17;;;;;;;0.50;0.50;;;21.80;62.20;;;;;;5095244;28;20411;-82
2022/05/31 13:23:47;;;;;;;0.40;0.40;;;21.80;63.40;;;;;;5094804;28;20554;-81
2022/05/31 13:26:18;;;;;;;0.57;0.57;;;21.80;64.40;;;;;;5094987;28;20926;-86
2022/05/31 13:28:59;;;;;;;0.67;0.67;;;21.70;62.70;;;;;;5095450;28;20797;-85
2022/05/31 13:31:27;;;;;;;0.40;0.40;;;21.60;62.00;;;;;;5094932;28;20481;-85
2022/05/31 13:33:58;;;;;;;0.50;0.40;;;21.50;64.10;;;;;;5094893;28;20835;-85
2022/05/31 13:36:27;;;;;;;2.00;0.50;;;21.60;63.30;;;;;;5095105;28;20458;-85
2022/05/31 13:38:58;;;;;;;1.90;0.60;;;21.60;62.60;;;;;;5094784;28;20977;-84